sensor_id;sensor_type;location;lat;lon;timestamp;P1;durP1;ratioP1;P2;durP2;ratioP2
78324;SDS011;67584;51.400;6.692;2023-05-13T00:01:16;15.48;;;11.32;;
78324;SDS011;67584;51.400;6.692;2023-05-13T00:03:42;16.70;;;12.57;;
78324;SDS011;67584;51.400;6.692;2023-05-13T00:06:08;14.48;;;12.32;;
78324;SDS011;67584;51.400;6.692;2023-05-13T00:08:33;14.82;;;12.13;;
78324;SDS011;67584;51.400;6.692;2023-05-13T00:10:59;14.52;;;11.52;;
78324;SDS011;67584;51.400;6.692;2023-05-13T00:13:25;18.30;;;12.52;;
78324;SDS011;67584;51.400;6.692;2023-05-13T00:15:51;16.88;;;12.77;;
78324;SDS011;67584;51.400;6.692;2023-05-13T00:18:17;15.98;;;11.65;;
78324;SDS011;67584;51.400;6.692;2023-05-13T00:20:43;15.27;;;12.30;;
78324;SDS011;67584;51.400;6.692;2023-05-13T00:23:08;16.20;;;11.80;;
78324;SDS011;67584;51.400;6.692;2023-05-13T00:25:35;15.35;;;11.80;;
78324;SDS011;67584;51.400;6.692;2023-05-13T00:28:01;14.90;;;11.68;;
78324;SDS011;67584;51.400;6.692;2023-05-13T00:30:27;15.95;;;11.48;;
78324;SDS011;67584;51.400;6.692;2023-05-13T00:32:53;14.05;;;10.55;;
78324;SDS011;67584;51.400;6.692;2023-05-13T00:35:19;14.43;;;11.27;;
78324;SDS011;67584;51.400;6.692;2023-05-13T00:37:44;13.05;;;10.65;;
78324;SDS011;67584;51.400;6.692;2023-05-13T00:40:14;14.73;;;10.77;;
78324;SDS011;67584;51.400;6.692;2023-05-13T00:42:45;12.80;;;11.15;;
78324;SDS011;67584;51.400;6.692;2023-05-13T00:45:11;12.30;;;10.13;;
78324;SDS011;67584;51.400;6.692;2023-05-13T00:47:37;13.90;;;10.43;;
78324;SDS011;67584;51.400;6.692;2023-05-13T00:50:04;13.32;;;10.88;;
78324;SDS011;67584;51.400;6.692;2023-05-13T00:52:31;12.23;;;10.32;;
78324;SDS011;67584;51.400;6.692;2023-05-13T00:54:58;11.88;;;9.85;;
78324;SDS011;67584;51.400;6.692;2023-05-13T00:57:23;10.85;;;9.75;;
78324;SDS011;67584;51.400;6.692;2023-05-13T00:59:49;16.02;;;10.43;;
78324;SDS011;67584;51.400;6.692;2023-05-13T01:02:16;12.93;;;10.75;;
78324;SDS011;67584;51.400;6.692;2023-05-13T01:07:43;12.98;;;9.50;;
78324;SDS011;67584;51.400;6.692;2023-05-13T01:10:14;10.18;;;8.90;;
78324;SDS011;67584;51.400;6.692;2023-05-13T01:13:02;11.63;;;10.43;;
78324;SDS011;67584;51.400;6.692;2023-05-13T01:15:32;14.73;;;9.85;;
78324;SDS011;67584;51.400;6.692;2023-05-13T01:18:06;12.43;;;9.93;;
78324;SDS011;67584;51.400;6.692;2023-05-13T01:20:35;12.52;;;10.25;;
78324;SDS011;67584;51.400;6.692;2023-05-13T01:23:04;14.65;;;10.27;;
78324;SDS011;67584;51.400;6.692;2023-05-13T01:25:30;13.27;;;10.05;;
78324;SDS011;67584;51.400;6.692;2023-05-13T01:27:56;12.57;;;10.95;;
78324;SDS011;67584;51.400;6.692;2023-05-13T01:30:22;12.45;;;10.30;;
78324;SDS011;67584;51.400;6.692;2023-05-13T01:32:49;11.35;;;9.35;;
78324;SDS011;67584;51.400;6.692;2023-05-13T01:35:15;13.43;;;10.75;;
78324;SDS011;67584;51.400;6.692;2023-05-13T01:37:43;11.80;;;9.80;;
78324;SDS011;67584;51.400;6.692;2023-05-13T01:40:10;13.30;;;9.18;;
78324;SDS011;67584;51.400;6.692;2023-05-13T01:42:38;12.15;;;9.70;;
78324;SDS011;67584;51.400;6.692;2023-05-13T01:45:04;10.13;;;9.07;;
78324;SDS011;67584;51.400;6.692;2023-05-13T01:47:31;11.32;;;9.52;;
78324;SDS011;67584;51.400;6.692;2023-05-13T01:49:57;11.20;;;9.50;;
78324;SDS011;67584;51.400;6.692;2023-05-13T01:52:22;10.57;;;9.43;;
78324;SDS011;67584;51.400;6.692;2023-05-13T01:54:48;11.73;;;8.60;;
78324;SDS011;67584;51.400;6.692;2023-05-13T01:57:14;11.88;;;9.25;;
78324;SDS011;67584;51.400;6.692;2023-05-13T01:59:39;12.45;;;9.45;;
78324;SDS011;67584;51.400;6.692;2023-05-13T02:02:05;10.52;;;9.43;;
78324;SDS011;67584;51.400;6.692;2023-05-13T02:04:31;10.77;;;9.50;;
78324;SDS011;67584;51.400;6.692;2023-05-13T02:06:57;13.13;;;9.57;;
78324;SDS011;67584;51.400;6.692;2023-05-13T02:09:25;11.13;;;9.90;;
78324;SDS011;67584;51.400;6.692;2023-05-13T02:11:51;12.88;;;10.70;;
78324;SDS011;67584;51.400;6.692;2023-05-13T02:14:16;12.38;;;10.10;;
78324;SDS011;67584;51.400;6.692;2023-05-13T02:16:42;11.20;;;9.57;;
78324;SDS011;67584;51.400;6.692;2023-05-13T02:19:08;12.30;;;9.48;;
78324;SDS011;67584;51.400;6.692;2023-05-13T02:21:33;13.43;;;10.23;;
78324;SDS011;67584;51.400;6.692;2023-05-13T02:23:59;11.27;;;10.00;;
78324;SDS011;67584;51.400;6.692;2023-05-13T02:26:27;10.73;;;8.98;;
78324;SDS011;67584;51.400;6.692;2023-05-13T02:28:52;21.08;;;9.80;;
78324;SDS011;67584;51.400;6.692;2023-05-13T02:31:19;10.13;;;8.90;;
78324;SDS011;67584;51.400;6.692;2023-05-13T02:33:45;11.65;;;9.88;;
78324;SDS011;67584;51.400;6.692;2023-05-13T02:36:11;12.55;;;10.45;;
78324;SDS011;67584;51.400;6.692;2023-05-13T02:38:37;12.60;;;10.00;;
78324;SDS011;67584;51.400;6.692;2023-05-13T02:41:05;11.52;;;10.27;;
78324;SDS011;67584;51.400;6.692;2023-05-13T02:43:31;13.30;;;11.05;;
78324;SDS011;67584;51.400;6.692;2023-05-13T02:46:01;14.18;;;11.35;;
78324;SDS011;67584;51.400;6.692;2023-05-13T02:48:28;13.90;;;10.88;;
78324;SDS011;67584;51.400;6.692;2023-05-13T02:50:54;12.75;;;11.18;;
78324;SDS011;67584;51.400;6.692;2023-05-13T02:53:20;14.15;;;11.20;;
78324;SDS011;67584;51.400;6.692;2023-05-13T02:55:51;13.20;;;11.18;;
78324;SDS011;67584;51.400;6.692;2023-05-13T02:58:21;13.30;;;12.00;;
78324;SDS011;67584;51.400;6.692;2023-05-13T03:00:47;16.02;;;12.25;;
78324;SDS011;67584;51.400;6.692;2023-05-13T03:03:13;14.52;;;11.38;;
78324;SDS011;67584;51.400;6.692;2023-05-13T03:05:39;15.57;;;12.10;;
78324;SDS011;67584;51.400;6.692;2023-05-13T03:08:04;16.13;;;12.27;;
78324;SDS011;67584;51.400;6.692;2023-05-13T03:10:30;19.05;;;12.55;;
78324;SDS011;67584;51.400;6.692;2023-05-13T03:12:56;15.52;;;12.38;;
78324;SDS011;67584;51.400;6.692;2023-05-13T03:15:21;15.88;;;12.18;;
78324;SDS011;67584;51.400;6.692;2023-05-13T03:17:47;17.10;;;13.20;;
78324;SDS011;67584;51.400;6.692;2023-05-13T03:20:13;16.73;;;11.82;;
78324;SDS011;67584;51.400;6.692;2023-05-13T03:22:38;13.30;;;11.85;;
78324;SDS011;67584;51.400;6.692;2023-05-13T03:25:05;12.27;;;10.57;;
78324;SDS011;67584;51.400;6.692;2023-05-13T03:27:38;14.63;;;11.80;;
78324;SDS011;67584;51.400;6.692;2023-05-13T03:30:05;16.75;;;10.93;;
78324;SDS011;67584;51.400;6.692;2023-05-13T03:32:37;14.30;;;12.80;;
78324;SDS011;67584;51.400;6.692;2023-05-13T03:35:04;13.43;;;10.73;;
78324;SDS011;67584;51.400;6.692;2023-05-13T03:37:30;13.38;;;10.30;;
78324;SDS011;67584;51.400;6.692;2023-05-13T03:39:56;13.32;;;10.60;;
78324;SDS011;67584;51.400;6.692;2023-05-13T03:42:22;11.82;;;9.88;;
78324;SDS011;67584;51.400;6.692;2023-05-13T03:44:48;13.60;;;9.80;;
78324;SDS011;67584;51.400;6.692;2023-05-13T03:47:15;11.70;;;9.13;;
78324;SDS011;67584;51.400;6.692;2023-05-13T03:49:40;14.77;;;10.48;;
78324;SDS011;67584;51.400;6.692;2023-05-13T03:52:06;12.75;;;10.65;;
78324;SDS011;67584;51.400;6.692;2023-05-13T03:54:33;12.00;;;10.43;;
78324;SDS011;67584;51.400;6.692;2023-05-13T03:56:59;12.70;;;10.57;;
78324;SDS011;67584;51.400;6.692;2023-05-13T03:59:25;12.13;;;10.18;;
78324;SDS011;67584;51.400;6.692;2023-05-13T04:01:51;13.05;;;11.15;;
78324;SDS011;67584;51.400;6.692;2023-05-13T04:04:17;11.30;;;9.50;;
78324;SDS011;67584;51.400;6.692;2023-05-13T04:06:42;10.85;;;9.18;;
78324;SDS011;67584;51.400;6.692;2023-05-13T04:09:08;10.88;;;9.70;;
78324;SDS011;67584;51.400;6.692;2023-05-13T04:11:34;13.13;;;9.73;;
78324;SDS011;67584;51.400;6.692;2023-05-13T04:14:00;11.88;;;8.98;;
78324;SDS011;67584;51.400;6.692;2023-05-13T04:16:25;11.60;;;9.95;;
78324;SDS011;67584;51.400;6.692;2023-05-13T04:18:51;11.00;;;9.20;;
78324;SDS011;67584;51.400;6.692;2023-05-13T04:21:17;10.70;;;9.57;;
78324;SDS011;67584;51.400;6.692;2023-05-13T04:23:43;11.95;;;9.75;;
78324;SDS011;67584;51.400;6.692;2023-05-13T04:26:09;11.60;;;9.48;;
78324;SDS011;67584;51.400;6.692;2023-05-13T04:28:35;11.75;;;10.48;;
78324;SDS011;67584;51.400;6.692;2023-05-13T04:31:02;14.30;;;10.80;;
78324;SDS011;67584;51.400;6.692;2023-05-13T04:33:28;12.48;;;10.27;;
78324;SDS011;67584;51.400;6.692;2023-05-13T04:35:54;12.32;;;9.90;;
78324;SDS011;67584;51.400;6.692;2023-05-13T04:38:21;9.98;;;8.90;;
78324;SDS011;67584;51.400;6.692;2023-05-13T04:40:46;11.23;;;10.05;;
78324;SDS011;67584;51.400;6.692;2023-05-13T04:43:15;11.95;;;9.60;;
78324;SDS011;67584;51.400;6.692;2023-05-13T04:45:51;11.52;;;10.32;;
78324;SDS011;67584;51.400;6.692;2023-05-13T04:48:17;11.70;;;10.50;;
78324;SDS011;67584;51.400;6.692;2023-05-13T04:50:43;15.57;;;10.75;;
78324;SDS011;67584;51.400;6.692;2023-05-13T04:53:13;12.52;;;10.10;;
78324;SDS011;67584;51.400;6.692;2023-05-13T04:55:39;11.63;;;10.43;;
78324;SDS011;67584;51.400;6.692;2023-05-13T04:58:05;12.80;;;10.10;;
78324;SDS011;67584;51.400;6.692;2023-05-13T05:00:33;14.20;;;9.63;;
78324;SDS011;67584;51.400;6.692;2023-05-13T05:02:59;11.45;;;9.20;;
78324;SDS011;67584;51.400;6.692;2023-05-13T05:05:25;13.32;;;9.68;;
78324;SDS011;67584;51.400;6.692;2023-05-13T05:07:51;13.68;;;9.38;;
78324;SDS011;67584;51.400;6.692;2023-05-13T05:10:18;12.30;;;10.23;;
78324;SDS011;67584;51.400;6.692;2023-05-13T05:12:50;12.05;;;10.15;;
78324;SDS011;67584;51.400;6.692;2023-05-13T05:15:15;10.90;;;9.02;;
78324;SDS011;67584;51.400;6.692;2023-05-13T05:17:44;14.73;;;9.95;;
78324;SDS011;67584;51.400;6.692;2023-05-13T05:20:10;12.90;;;10.95;;
78324;SDS011;67584;51.400;6.692;2023-05-13T05:22:37;14.40;;;11.00;;
78324;SDS011;67584;51.400;6.692;2023-05-13T05:25:03;14.52;;;10.00;;
78324;SDS011;67584;51.400;6.692;2023-05-13T05:27:29;11.75;;;10.13;;
78324;SDS011;67584;51.400;6.692;2023-05-13T05:29:55;12.27;;;9.63;;
78324;SDS011;67584;51.400;6.692;2023-05-13T05:32:21;12.15;;;9.82;;
78324;SDS011;67584;51.400;6.692;2023-05-13T05:34:47;14.63;;;9.52;;
78324;SDS011;67584;51.400;6.692;2023-05-13T05:37:13;11.30;;;10.10;;
78324;SDS011;67584;51.400;6.692;2023-05-13T05:39:40;13.02;;;10.20;;
78324;SDS011;67584;51.400;6.692;2023-05-13T05:42:06;12.30;;;10.60;;
78324;SDS011;67584;51.400;6.692;2023-05-13T05:44:32;12.18;;;9.85;;
78324;SDS011;67584;51.400;6.692;2023-05-13T05:46:58;11.40;;;10.05;;
78324;SDS011;67584;51.400;6.692;2023-05-13T05:49:24;15.20;;;10.98;;
78324;SDS011;67584;51.400;6.692;2023-05-13T05:51:51;11.80;;;10.10;;
78324;SDS011;67584;51.400;6.692;2023-05-13T05:54:17;13.32;;;10.02;;
78324;SDS011;67584;51.400;6.692;2023-05-13T05:56:43;13.07;;;9.80;;
78324;SDS011;67584;51.400;6.692;2023-05-13T05:59:09;11.10;;;9.52;;
78324;SDS011;67584;51.400;6.692;2023-05-13T06:01:35;11.68;;;9.88;;
78324;SDS011;67584;51.400;6.692;2023-05-13T06:04:04;11.93;;;9.93;;
78324;SDS011;67584;51.400;6.692;2023-05-13T06:06:31;12.57;;;9.88;;
78324;SDS011;67584;51.400;6.692;2023-05-13T06:08:58;11.13;;;9.45;;
78324;SDS011;67584;51.400;6.692;2023-05-13T06:11:23;14.23;;;11.05;;
78324;SDS011;67584;51.400;6.692;2023-05-13T06:13:49;16.23;;;10.48;;
78324;SDS011;67584;51.400;6.692;2023-05-13T06:16:15;12.23;;;10.95;;
78324;SDS011;67584;51.400;6.692;2023-05-13T06:18:41;11.60;;;9.82;;
78324;SDS011;67584;51.400;6.692;2023-05-13T06:21:07;10.25;;;9.05;;
78324;SDS011;67584;51.400;6.692;2023-05-13T06:23:33;13.18;;;10.43;;
78324;SDS011;67584;51.400;6.692;2023-05-13T06:25:58;13.85;;;10.68;;
78324;SDS011;67584;51.400;6.692;2023-05-13T06:28:24;14.15;;;10.77;;
78324;SDS011;67584;51.400;6.692;2023-05-13T06:30:50;18.38;;;10.93;;
78324;SDS011;67584;51.400;6.692;2023-05-13T06:33:15;14.15;;;12.25;;
78324;SDS011;67584;51.400;6.692;2023-05-13T06:35:41;13.10;;;10.43;;
78324;SDS011;67584;51.400;6.692;2023-05-13T06:38:12;12.05;;;10.13;;
78324;SDS011;67584;51.400;6.692;2023-05-13T06:40:38;12.55;;;10.52;;
78324;SDS011;67584;51.400;6.692;2023-05-13T06:43:04;12.32;;;10.70;;
78324;SDS011;67584;51.400;6.692;2023-05-13T06:45:35;13.90;;;9.98;;
78324;SDS011;67584;51.400;6.692;2023-05-13T06:48:01;12.73;;;10.05;;
78324;SDS011;67584;51.400;6.692;2023-05-13T06:50:28;11.35;;;9.95;;
78324;SDS011;67584;51.400;6.692;2023-05-13T06:52:54;12.25;;;9.88;;
78324;SDS011;67584;51.400;6.692;2023-05-13T06:55:19;10.48;;;9.07;;
78324;SDS011;67584;51.400;6.692;2023-05-13T06:57:45;10.80;;;9.30;;
78324;SDS011;67584;51.400;6.692;2023-05-13T07:00:12;10.35;;;9.35;;
78324;SDS011;67584;51.400;6.692;2023-05-13T07:02:38;11.52;;;8.45;;
78324;SDS011;67584;51.400;6.692;2023-05-13T07:05:04;11.85;;;9.45;;
78324;SDS011;67584;51.400;6.692;2023-05-13T07:07:30;11.43;;;9.50;;
78324;SDS011;67584;51.400;6.692;2023-05-13T07:09:56;13.10;;;9.15;;
78324;SDS011;67584;51.400;6.692;2023-05-13T07:12:21;9.88;;;7.90;;
78324;SDS011;67584;51.400;6.692;2023-05-13T07:14:47;9.63;;;8.63;;
78324;SDS011;67584;51.400;6.692;2023-05-13T07:17:13;9.63;;;8.25;;
78324;SDS011;67584;51.400;6.692;2023-05-13T07:19:38;8.90;;;8.00;;
78324;SDS011;67584;51.400;6.692;2023-05-13T07:22:04;13.40;;;9.55;;
78324;SDS011;67584;51.400;6.692;2023-05-13T07:24:30;14.38;;;8.35;;
78324;SDS011;67584;51.400;6.692;2023-05-13T07:26:55;8.55;;;7.65;;
78324;SDS011;67584;51.400;6.692;2023-05-13T07:29:21;11.68;;;8.60;;
78324;SDS011;67584;51.400;6.692;2023-05-13T07:31:46;8.32;;;7.10;;
78324;SDS011;67584;51.400;6.692;2023-05-13T07:34:12;10.10;;;6.85;;
78324;SDS011;67584;51.400;6.692;2023-05-13T07:36:38;10.45;;;7.43;;
78324;SDS011;67584;51.400;6.692;2023-05-13T07:39:04;8.82;;;7.80;;
78324;SDS011;67584;51.400;6.692;2023-05-13T07:41:32;9.20;;;7.88;;
78324;SDS011;67584;51.400;6.692;2023-05-13T07:43:58;8.68;;;7.18;;
78324;SDS011;67584;51.400;6.692;2023-05-13T07:46:24;10.40;;;7.35;;
78324;SDS011;67584;51.400;6.692;2023-05-13T07:48:49;12.60;;;6.70;;
78324;SDS011;67584;51.400;6.692;2023-05-13T07:51:15;9.80;;;7.65;;
78324;SDS011;67584;51.400;6.692;2023-05-13T07:53:42;10.30;;;7.22;;
78324;SDS011;67584;51.400;6.692;2023-05-13T07:56:11;8.55;;;7.75;;
78324;SDS011;67584;51.400;6.692;2023-05-13T07:58:36;7.78;;;7.05;;
78324;SDS011;67584;51.400;6.692;2023-05-13T08:01:02;10.23;;;8.13;;
78324;SDS011;67584;51.400;6.692;2023-05-13T08:03:29;8.40;;;7.60;;
78324;SDS011;67584;51.400;6.692;2023-05-13T08:05:55;9.65;;;8.52;;
78324;SDS011;67584;51.400;6.692;2023-05-13T08:08:20;8.85;;;6.63;;
78324;SDS011;67584;51.400;6.692;2023-05-13T08:10:46;8.57;;;6.40;;
78324;SDS011;67584;51.400;6.692;2023-05-13T08:13:12;10.23;;;7.70;;
78324;SDS011;67584;51.400;6.692;2023-05-13T08:15:38;8.25;;;7.32;;
78324;SDS011;67584;51.400;6.692;2023-05-13T08:18:03;8.32;;;7.53;;
78324;SDS011;67584;51.400;6.692;2023-05-13T08:20:29;7.35;;;6.65;;
78324;SDS011;67584;51.400;6.692;2023-05-13T08:22:55;9.45;;;8.32;;
78324;SDS011;67584;51.400;6.692;2023-05-13T08:25:22;8.73;;;7.82;;
78324;SDS011;67584;51.400;6.692;2023-05-13T08:27:48;9.88;;;7.90;;
78324;SDS011;67584;51.400;6.692;2023-05-13T08:30:14;8.63;;;7.80;;
78324;SDS011;67584;51.400;6.692;2023-05-13T08:32:40;8.02;;;6.78;;
78324;SDS011;67584;51.400;6.692;2023-05-13T08:35:06;7.63;;;5.90;;
78324;SDS011;67584;51.400;6.692;2023-05-13T08:37:32;6.57;;;5.88;;
78324;SDS011;67584;51.400;6.692;2023-05-13T08:39:57;7.88;;;6.53;;
78324;SDS011;67584;51.400;6.692;2023-05-13T08:42:27;8.35;;;6.97;;
78324;SDS011;67584;51.400;6.692;2023-05-13T08:44:56;10.05;;;8.05;;
78324;SDS011;67584;51.400;6.692;2023-05-13T08:47:31;9.38;;;6.13;;
78324;SDS011;67584;51.400;6.692;2023-05-13T08:50:13;7.97;;;6.70;;
78324;SDS011;67584;51.400;6.692;2023-05-13T08:52:39;10.93;;;6.90;;
78324;SDS011;67584;51.400;6.692;2023-05-13T08:55:05;7.07;;;5.97;;
78324;SDS011;67584;51.400;6.692;2023-05-13T08:57:33;9.15;;;6.82;;
78324;SDS011;67584;51.400;6.692;2023-05-13T08:59:58;6.95;;;5.95;;
78324;SDS011;67584;51.400;6.692;2023-05-13T09:02:24;6.10;;;5.50;;
78324;SDS011;67584;51.400;6.692;2023-05-13T09:04:51;6.47;;;5.80;;
78324;SDS011;67584;51.400;6.692;2023-05-13T09:07:18;8.18;;;5.40;;
78324;SDS011;67584;51.400;6.692;2023-05-13T09:09:44;6.90;;;5.50;;
78324;SDS011;67584;51.400;6.692;2023-05-13T09:12:10;8.15;;;5.90;;
78324;SDS011;67584;51.400;6.692;2023-05-13T09:14:36;7.03;;;4.95;;
78324;SDS011;67584;51.400;6.692;2023-05-13T09:17:02;7.72;;;5.00;;
78324;SDS011;67584;51.400;6.692;2023-05-13T09:19:28;7.47;;;5.95;;
78324;SDS011;67584;51.400;6.692;2023-05-13T09:21:54;6.05;;;5.22;;
78324;SDS011;67584;51.400;6.692;2023-05-13T09:24:22;7.20;;;5.50;;
78324;SDS011;67584;51.400;6.692;2023-05-13T09:26:48;6.30;;;5.18;;
78324;SDS011;67584;51.400;6.692;2023-05-13T09:29:22;7.25;;;5.47;;
78324;SDS011;67584;51.400;6.692;2023-05-13T09:31:50;8.98;;;6.18;;
78324;SDS011;67584;51.400;6.692;2023-05-13T09:34:28;9.32;;;6.03;;
78324;SDS011;67584;51.400;6.692;2023-05-13T09:36:59;6.30;;;5.28;;
78324;SDS011;67584;51.400;6.692;2023-05-13T09:39:37;7.85;;;5.68;;
78324;SDS011;67584;51.400;6.692;2023-05-13T09:42:06;7.22;;;5.70;;
78324;SDS011;67584;51.400;6.692;2023-05-13T09:44:46;5.50;;;4.75;;
78324;SDS011;67584;51.400;6.692;2023-05-13T09:47:13;5.05;;;4.55;;
78324;SDS011;67584;51.400;6.692;2023-05-13T09:49:40;8.35;;;5.13;;
78324;SDS011;67584;51.400;6.692;2023-05-13T09:52:09;5.45;;;4.95;;
78324;SDS011;67584;51.400;6.692;2023-05-13T09:54:36;6.07;;;4.82;;
78324;SDS011;67584;51.400;6.692;2023-05-13T09:57:02;5.00;;;4.50;;
78324;SDS011;67584;51.400;6.692;2023-05-13T09:59:32;5.45;;;4.95;;
78324;SDS011;67584;51.400;6.692;2023-05-13T10:02:04;6.15;;;4.47;;
78324;SDS011;67584;51.400;6.692;2023-05-13T10:04:31;5.32;;;4.82;;
78324;SDS011;67584;51.400;6.692;2023-05-13T10:06:57;4.53;;;4.13;;
78324;SDS011;67584;51.400;6.692;2023-05-13T10:09:26;6.47;;;4.53;;
78324;SDS011;67584;51.400;6.692;2023-05-13T10:11:54;6.13;;;4.30;;
78324;SDS011;67584;51.400;6.692;2023-05-13T10:14:22;6.28;;;4.60;;
78324;SDS011;67584;51.400;6.692;2023-05-13T10:16:48;7.45;;;4.90;;
78324;SDS011;67584;51.400;6.692;2023-05-13T10:19:16;7.43;;;4.60;;
78324;SDS011;67584;51.400;6.692;2023-05-13T10:21:42;6.90;;;4.80;;
78324;SDS011;67584;51.400;6.692;2023-05-13T10:24:08;6.07;;;4.25;;
78324;SDS011;67584;51.400;6.692;2023-05-13T10:26:35;4.57;;;4.10;;
78324;SDS011;67584;51.400;6.692;2023-05-13T10:29:01;6.18;;;4.93;;
78324;SDS011;67584;51.400;6.692;2023-05-13T10:31:27;5.95;;;4.18;;
78324;SDS011;67584;51.400;6.692;2023-05-13T10:33:54;5.88;;;4.38;;
78324;SDS011;67584;51.400;6.692;2023-05-13T10:44:27;7.47;;;3.85;;
78324;SDS011;67584;51.400;6.692;2023-05-13T10:46:55;6.30;;;4.20;;
78324;SDS011;67584;51.400;6.692;2023-05-13T10:49:21;4.10;;;3.65;;
78324;SDS011;67584;51.400;6.692;2023-05-13T10:51:48;5.65;;;3.60;;
78324;SDS011;67584;51.400;6.692;2023-05-13T10:54:18;4.03;;;3.63;;
78324;SDS011;67584;51.400;6.692;2023-05-13T10:56:45;4.25;;;3.85;;
78324;SDS011;67584;51.400;6.692;2023-05-13T10:59:22;4.57;;;3.80;;
78324;SDS011;67584;51.400;6.692;2023-05-13T11:01:47;5.03;;;4.10;;
78324;SDS011;67584;51.400;6.692;2023-05-13T11:04:14;5.68;;;3.90;;
78324;SDS011;67584;51.400;6.692;2023-05-13T11:06:42;6.68;;;4.57;;
78324;SDS011;67584;51.400;6.692;2023-05-13T11:11:37;13.98;;;5.18;;
78324;SDS011;67584;51.400;6.692;2023-05-13T11:16:35;5.55;;;4.38;;
78324;SDS011;67584;51.400;6.692;2023-05-13T11:19:07;4.32;;;3.72;;
78324;SDS011;67584;51.400;6.692;2023-05-13T11:21:42;4.07;;;3.42;;
78324;SDS011;67584;51.400;6.692;2023-05-13T11:24:16;7.35;;;3.67;;
78324;SDS011;67584;51.400;6.692;2023-05-13T11:29:26;5.13;;;4.40;;
78324;SDS011;67584;51.400;6.692;2023-05-13T11:31:51;4.35;;;3.85;;
78324;SDS011;67584;51.400;6.692;2023-05-13T11:34:20;4.47;;;4.07;;
78324;SDS011;67584;51.400;6.692;2023-05-13T11:36:47;6.38;;;4.10;;
78324;SDS011;67584;51.400;6.692;2023-05-13T11:39:19;4.25;;;3.95;;
78324;SDS011;67584;51.400;6.692;2023-05-13T11:41:47;6.18;;;4.22;;
78324;SDS011;67584;51.400;6.692;2023-05-13T11:44:15;9.75;;;4.28;;
78324;SDS011;67584;51.400;6.692;2023-05-13T11:46:54;5.57;;;4.55;;
78324;SDS011;67584;51.400;6.692;2023-05-13T11:49:30;4.60;;;4.20;;
78324;SDS011;67584;51.400;6.692;2023-05-13T11:52:13;6.05;;;4.35;;
78324;SDS011;67584;51.400;6.692;2023-05-13T11:57:13;5.32;;;4.32;;
78324;SDS011;67584;51.400;6.692;2023-05-13T11:59:58;7.18;;;4.60;;
78324;SDS011;67584;51.400;6.692;2023-05-13T12:02:25;5.85;;;4.25;;
78324;SDS011;67584;51.400;6.692;2023-05-13T12:04:54;6.22;;;4.50;;
78324;SDS011;67584;51.400;6.692;2023-05-13T12:07:23;5.50;;;5.00;;
78324;SDS011;67584;51.400;6.692;2023-05-13T12:09:50;6.45;;;4.00;;
78324;SDS011;67584;51.400;6.692;2023-05-13T12:12:18;5.65;;;4.75;;
78324;SDS011;67584;51.400;6.692;2023-05-13T12:14:45;6.35;;;4.97;;
78324;SDS011;67584;51.400;6.692;2023-05-13T12:17:14;6.25;;;4.57;;
78324;SDS011;67584;51.400;6.692;2023-05-13T12:19:59;5.22;;;4.45;;
78324;SDS011;67584;51.400;6.692;2023-05-13T12:22:36;8.13;;;5.45;;
78324;SDS011;67584;51.400;6.692;2023-05-13T12:28:25;5.95;;;4.18;;
78324;SDS011;67584;51.400;6.692;2023-05-13T12:30:58;5.13;;;4.45;;
78324;SDS011;67584;51.400;6.692;2023-05-13T12:36:16;6.25;;;4.50;;
78324;SDS011;67584;51.400;6.692;2023-05-13T12:38:59;5.75;;;4.35;;
78324;SDS011;67584;51.400;6.692;2023-05-13T12:41:33;6.20;;;4.85;;
78324;SDS011;67584;51.400;6.692;2023-05-13T12:44:00;10.93;;;4.60;;
78324;SDS011;67584;51.400;6.692;2023-05-13T12:46:26;5.47;;;4.22;;
78324;SDS011;67584;51.400;6.692;2023-05-13T12:48:55;7.47;;;4.90;;
78324;SDS011;67584;51.400;6.692;2023-05-13T12:51:23;6.68;;;4.25;;
78324;SDS011;67584;51.400;6.692;2023-05-13T12:53:49;5.47;;;4.38;;
78324;SDS011;67584;51.400;6.692;2023-05-13T12:56:14;7.03;;;5.72;;
78324;SDS011;67584;51.400;6.692;2023-05-13T12:58:40;5.80;;;4.30;;
78324;SDS011;67584;51.400;6.692;2023-05-13T13:01:06;6.40;;;4.20;;
78324;SDS011;67584;51.400;6.692;2023-05-13T13:03:31;5.10;;;4.00;;
78324;SDS011;67584;51.400;6.692;2023-05-13T13:05:57;4.68;;;4.10;;
78324;SDS011;67584;51.400;6.692;2023-05-13T13:08:23;4.53;;;4.13;;
78324;SDS011;67584;51.400;6.692;2023-05-13T13:10:48;5.70;;;4.13;;
78324;SDS011;67584;51.400;6.692;2023-05-13T13:13:14;5.25;;;4.30;;
78324;SDS011;67584;51.400;6.692;2023-05-13T13:15:40;6.85;;;4.82;;
78324;SDS011;67584;51.400;6.692;2023-05-13T13:18:06;6.65;;;4.50;;
78324;SDS011;67584;51.400;6.692;2023-05-13T13:20:32;4.53;;;4.10;;
78324;SDS011;67584;51.400;6.692;2023-05-13T13:22:58;6.60;;;4.10;;
78324;SDS011;67584;51.400;6.692;2023-05-13T13:25:25;4.60;;;4.20;;
78324;SDS011;67584;51.400;6.692;2023-05-13T13:27:51;4.72;;;4.10;;
78324;SDS011;67584;51.400;6.692;2023-05-13T13:30:16;4.60;;;4.15;;
78324;SDS011;67584;51.400;6.692;2023-05-13T13:32:42;4.22;;;3.75;;
78324;SDS011;67584;51.400;6.692;2023-05-13T13:35:07;5.53;;;4.10;;
78324;SDS011;67584;51.400;6.692;2023-05-13T13:37:34;4.60;;;4.05;;
78324;SDS011;67584;51.400;6.692;2023-05-13T13:39:59;4.95;;;3.78;;
78324;SDS011;67584;51.400;6.692;2023-05-13T13:42:26;5.18;;;4.32;;
78324;SDS011;67584;51.400;6.692;2023-05-13T13:44:51;5.65;;;4.15;;
78324;SDS011;67584;51.400;6.692;2023-05-13T13:47:17;5.15;;;4.60;;
78324;SDS011;67584;51.400;6.692;2023-05-13T13:49:43;4.18;;;3.75;;
78324;SDS011;67584;51.400;6.692;2023-05-13T13:52:08;5.68;;;4.30;;
78324;SDS011;67584;51.400;6.692;2023-05-13T13:54:34;5.07;;;4.57;;
78324;SDS011;67584;51.400;6.692;2023-05-13T13:57:00;5.70;;;5.13;;
78324;SDS011;67584;51.400;6.692;2023-05-13T13:59:28;4.68;;;4.15;;
78324;SDS011;67584;51.400;6.692;2023-05-13T14:01:57;5.38;;;4.35;;
78324;SDS011;67584;51.400;6.692;2023-05-13T14:04:22;4.47;;;4.07;;
78324;SDS011;67584;51.400;6.692;2023-05-13T14:06:51;6.20;;;3.80;;
78324;SDS011;67584;51.400;6.692;2023-05-13T14:09:17;4.68;;;4.07;;
78324;SDS011;67584;51.400;6.692;2023-05-13T14:11:43;4.85;;;4.45;;
78324;SDS011;67584;51.400;6.692;2023-05-13T14:14:09;4.50;;;3.80;;
78324;SDS011;67584;51.400;6.692;2023-05-13T14:16:35;4.97;;;4.13;;
78324;SDS011;67584;51.400;6.692;2023-05-13T14:19:01;6.22;;;4.45;;
78324;SDS011;67584;51.400;6.692;2023-05-13T14:21:26;4.88;;;4.28;;
78324;SDS011;67584;51.400;6.692;2023-05-13T14:23:52;6.50;;;5.07;;
78324;SDS011;67584;51.400;6.692;2023-05-13T14:26:17;5.15;;;4.53;;
78324;SDS011;67584;51.400;6.692;2023-05-13T14:28:44;6.28;;;4.32;;
78324;SDS011;67584;51.400;6.692;2023-05-13T14:31:10;4.88;;;4.25;;
78324;SDS011;67584;51.400;6.692;2023-05-13T14:33:35;4.20;;;3.55;;
78324;SDS011;67584;51.400;6.692;2023-05-13T14:36:01;6.50;;;3.80;;
78324;SDS011;67584;51.400;6.692;2023-05-13T14:38:27;5.25;;;4.22;;
78324;SDS011;67584;51.400;6.692;2023-05-13T14:40:53;5.03;;;3.83;;
78324;SDS011;67584;51.400;6.692;2023-05-13T14:43:22;4.80;;;4.18;;
78324;SDS011;67584;51.400;6.692;2023-05-13T14:45:48;6.35;;;4.85;;
78324;SDS011;67584;51.400;6.692;2023-05-13T14:48:15;6.10;;;4.68;;
78324;SDS011;67584;51.400;6.692;2023-05-13T14:50:44;6.78;;;4.10;;
78324;SDS011;67584;51.400;6.692;2023-05-13T14:53:10;6.95;;;4.25;;
78324;SDS011;67584;51.400;6.692;2023-05-13T14:55:36;4.97;;;4.10;;
78324;SDS011;67584;51.400;6.692;2023-05-13T14:58:02;7.35;;;5.25;;
78324;SDS011;67584;51.400;6.692;2023-05-13T15:00:28;8.95;;;6.30;;
78324;SDS011;67584;51.400;6.692;2023-05-13T15:02:55;6.95;;;5.50;;